KDSM

Des Moines International Airport

Des Moines, Iowa, USA
METAR KDSM 271154Z 00000KT 10SM FEW250 23/21 A2981 RMK AO2 SLP086 T02330206 10256 20222 53012
Observed Flight Rules
May-27 @ 11:54 UTC (7 minutes ago) Visual Flight Rules
Visibility Clouds
10 miles
  • Few at 25,000' AGL
Temperatures Readings
Current 23°C / 73°F
Dewpoint 21°C / 70°F
Humidity 89%
Altimeter 29.81" Hg
Pressure 1008.6 hPa
Elevation 295
METAR KDSM 271154Z 00000KT 10SM FEW250 23/21 A2981 RMK AO2 SLP086 T02330206 10256 20222 53012
Observed Flight Rules
May-27 @ 11:54 UTC
(7 minutes ago)
VFR
Clouds
  • Few at 25,000' AGL
Temperature Dewpoint
23°C / 73°F 21°C / 70°F
Humidity Altimeter Pressure
89% 29.81" Hg 1008.6 hPa